createdAt,value
2018-08-30T00:00:16.521Z,18.10
2018-08-30T00:02:46.050Z,18.10
2018-08-30T00:05:15.832Z,17.90
2018-08-30T00:07:45.613Z,17.70
2018-08-30T00:10:15.150Z,17.60
2018-08-30T00:12:44.674Z,17.60
2018-08-30T00:15:14.138Z,17.60
2018-08-30T00:17:43.740Z,17.60
2018-08-30T00:20:13.449Z,17.50
2018-08-30T00:22:43.033Z,17.60
2018-08-30T00:25:12.516Z,17.60
2018-08-30T00:27:42.272Z,17.60
2018-08-30T00:30:11.965Z,17.60
2018-08-30T00:32:41.773Z,17.60
2018-08-30T00:35:11.681Z,17.60
2018-08-30T00:37:41.533Z,17.60
2018-08-30T00:40:11.453Z,17.50
2018-08-30T00:42:41.128Z,17.50
2018-08-30T00:45:10.737Z,17.60
2018-08-30T00:47:43.619Z,17.70
2018-08-30T00:50:13.288Z,17.80
2018-08-30T00:52:42.935Z,17.90
2018-08-30T00:55:13.633Z,17.90
2018-08-30T00:57:43.638Z,17.90
2018-08-30T01:00:13.133Z,17.80
2018-08-30T01:02:42.812Z,17.70
2018-08-30T01:05:12.661Z,17.70
2018-08-30T01:07:42.397Z,17.60
2018-08-30T01:10:12.137Z,17.50
2018-08-30T01:12:47.377Z,17.50
2018-08-30T01:15:17.333Z,17.50
2018-08-30T01:17:46.919Z,17.60
2018-08-30T01:20:16.633Z,17.60
2018-08-30T01:22:46.862Z,17.60
2018-08-30T01:25:16.546Z,17.60
2018-08-30T01:27:46.388Z,17.50
2018-08-30T01:30:16.293Z,17.40
2018-08-30T01:32:46.290Z,17.30
2018-08-30T01:35:16.105Z,17.20
2018-08-30T01:37:45.717Z,17.20
2018-08-30T01:40:16.314Z,17.10
2018-08-30T01:42:45.865Z,17.00
2018-08-30T01:45:15.570Z,17.00
2018-08-30T01:47:45.799Z,16.90
2018-08-30T01:50:15.419Z,16.90
2018-08-30T01:52:45.202Z,16.90
2018-08-30T01:55:14.949Z,17.00
2018-08-30T01:57:44.540Z,17.10
2018-08-30T02:00:14.366Z,17.10
2018-08-30T02:02:43.989Z,17.00
2018-08-30T02:05:13.633Z,17.00
2018-08-30T02:07:44.093Z,17.00
2018-08-30T02:10:13.701Z,16.90
2018-08-30T02:12:43.326Z,16.90
2018-08-30T02:15:13.629Z,16.90
2018-08-30T02:17:43.441Z,16.90
2018-08-30T02:20:13.133Z,16.90
2018-08-30T02:22:42.869Z,16.90
2018-08-30T02:25:12.467Z,16.90
2018-08-30T02:27:42.162Z,16.90
2018-08-30T02:30:11.882Z,16.80
2018-08-30T02:32:41.636Z,16.80
2018-08-30T02:35:11.280Z,16.80
2018-08-30T02:37:40.893Z,16.80
2018-08-30T02:40:10.632Z,16.80
2018-08-30T02:42:40.340Z,16.90
2018-08-30T02:45:09.822Z,17.00
2018-08-30T02:47:39.452Z,17.00
2018-08-30T02:50:09.181Z,17.00
2018-08-30T02:52:38.904Z,17.00
2018-08-30T02:55:08.728Z,17.10
2018-08-30T02:57:38.374Z,17.00
2018-08-30T03:00:08.882Z,17.10
2018-08-30T03:02:38.636Z,17.00
2018-08-30T03:05:08.341Z,17.00
2018-08-30T03:07:37.945Z,17.00
2018-08-30T03:10:07.874Z,16.90
2018-08-30T03:12:37.481Z,16.80
2018-08-30T03:15:15.586Z,16.70
2018-08-30T03:17:45.307Z,16.70
2018-08-30T03:20:15.524Z,16.50
2018-08-30T03:22:45.224Z,16.50
2018-08-30T03:25:14.911Z,16.40
2018-08-30T03:27:44.532Z,16.30
2018-08-30T03:30:14.308Z,16.40
2018-08-30T03:32:43.861Z,16.40
2018-08-30T03:35:13.638Z,16.40
2018-08-30T03:37:43.182Z,16.40
2018-08-30T03:40:12.687Z,16.50
2018-08-30T03:42:42.192Z,16.40
2018-08-30T03:45:11.820Z,16.40
2018-08-30T03:47:41.481Z,16.30
2018-08-30T03:50:11.093Z,16.10
2018-08-30T03:52:40.715Z,16.20
2018-08-30T03:55:10.880Z,16.20
2018-08-30T03:57:40.465Z,16.20
2018-08-30T04:00:10.380Z,16.20
2018-08-30T04:02:40.549Z,16.20
2018-08-30T04:05:10.307Z,16.20
2018-08-30T04:07:39.974Z,16.10
2018-08-30T04:10:09.767Z,16.10
2018-08-30T04:12:39.921Z,16.00
2018-08-30T04:15:09.644Z,16.10
2018-08-30T04:17:39.327Z,16.10
2018-08-30T04:20:08.868Z,16.20
2018-08-30T04:22:38.593Z,16.20
2018-08-30T04:25:08.216Z,16.20
2018-08-30T04:27:38.198Z,16.30
2018-08-30T04:30:07.910Z,16.30
2018-08-30T04:32:37.618Z,16.30
2018-08-30T04:35:07.512Z,16.30
2018-08-30T04:37:37.761Z,16.20
2018-08-30T04:40:07.566Z,16.10
2018-08-30T04:42:37.317Z,16.00
2018-08-30T04:45:07.508Z,15.90
2018-08-30T04:47:37.218Z,15.90
2018-08-30T04:50:07.078Z,15.80
2018-08-30T04:52:36.701Z,15.70
2018-08-30T04:55:06.498Z,15.60
2018-08-30T04:57:36.042Z,15.50
2018-08-30T05:00:06.114Z,15.60
2018-08-30T05:02:35.718Z,15.60
2018-08-30T05:05:06.061Z,15.70
2018-08-30T05:07:35.760Z,15.80
2018-08-30T05:10:06.238Z,15.70
2018-08-30T05:12:35.747Z,15.80
2018-08-30T05:15:07.252Z,15.90
2018-08-30T05:17:36.786Z,15.90
2018-08-30T05:20:06.832Z,15.90
2018-08-30T05:22:36.720Z,16.00
2018-08-30T05:25:06.643Z,16.00
2018-08-30T05:27:36.338Z,16.10
2018-08-30T05:30:06.209Z,16.20
2018-08-30T05:32:35.951Z,16.30
2018-08-30T05:35:05.676Z,16.40
2018-08-30T05:37:35.317Z,16.50
2018-08-30T05:40:05.037Z,16.60
2018-08-30T05:42:34.600Z,16.60
2018-08-30T05:45:04.292Z,16.60
2018-08-30T05:47:33.815Z,16.50
2018-08-30T05:50:03.485Z,16.50
2018-08-30T05:52:33.137Z,16.50
2018-08-30T05:55:03.385Z,16.50
2018-08-30T05:57:32.962Z,16.40
2018-08-30T06:00:03.037Z,16.50
2018-08-30T06:02:32.697Z,16.70
2018-08-30T06:05:02.397Z,16.90
2018-08-30T06:07:32.067Z,17.00
2018-08-30T06:10:01.632Z,17.10
2018-08-30T06:12:31.276Z,17.10
2018-08-30T06:15:01.058Z,17.10
2018-08-30T06:17:30.659Z,17.00
2018-08-30T06:20:00.378Z,16.90
2018-08-30T06:22:29.944Z,16.80
2018-08-30T06:24:59.862Z,16.80
2018-08-30T06:27:29.501Z,16.90
2018-08-30T06:29:59.019Z,16.90
2018-08-30T06:32:35.305Z,17.00
2018-08-30T06:35:05.048Z,17.00
2018-08-30T06:37:34.767Z,17.10
2018-08-30T06:40:04.380Z,17.10
2018-08-30T06:42:34.612Z,17.10
2018-08-30T06:45:04.335Z,17.10
2018-08-30T06:47:34.429Z,17.30
2018-08-30T06:50:04.401Z,17.50
2018-08-30T06:52:33.916Z,17.70
2018-08-30T06:55:03.710Z,18.00
2018-08-30T06:57:33.613Z,18.20
2018-08-30T07:00:03.370Z,18.30
2018-08-30T07:02:33.096Z,18.20
2018-08-30T07:05:02.761Z,18.40
2018-08-30T07:07:32.372Z,18.60
2018-08-30T07:10:02.039Z,18.70
2018-08-30T07:12:31.765Z,18.80
2018-08-30T07:15:01.632Z,19.00
2018-08-30T07:17:31.441Z,18.90
2018-08-30T07:20:00.994Z,19.00
2018-08-30T07:22:30.600Z,18.90
2018-08-30T07:25:00.299Z,18.60
2018-08-30T07:27:30.019Z,18.90
2018-08-30T07:29:59.697Z,19.30
2018-08-30T07:32:29.561Z,19.40
2018-08-30T07:34:59.337Z,19.80
2018-08-30T07:37:28.943Z,21.30
2018-08-30T07:39:58.527Z,21.50
2018-08-30T07:42:28.147Z,21.40
2018-08-30T07:44:57.893Z,21.30
2018-08-30T07:47:27.843Z,21.30
2018-08-30T07:49:57.511Z,21.20
2018-08-30T07:52:31.491Z,20.70
2018-08-30T07:55:01.091Z,20.10
2018-08-30T07:57:30.782Z,19.60
2018-08-30T08:00:00.452Z,19.50
2018-08-30T08:02:30.219Z,19.30
2018-08-30T08:04:59.720Z,19.20
2018-08-30T08:07:29.449Z,19.10
2018-08-30T08:09:59.520Z,19.40
2018-08-30T08:12:29.102Z,20.50
2018-08-30T08:14:58.949Z,21.30
2018-08-30T08:17:28.825Z,21.90
2018-08-30T08:19:58.546Z,23.00
2018-08-30T08:22:29.980Z,24.50
2018-08-30T08:24:59.695Z,24.80
2018-08-30T08:27:29.245Z,24.30
2018-08-30T08:29:59.056Z,24.40
2018-08-30T08:32:28.836Z,24.40
2018-08-30T08:34:58.415Z,25.20
2018-08-30T08:37:28.261Z,26.10
2018-08-30T08:39:57.857Z,27.40
2018-08-30T08:42:27.678Z,26.20
2018-08-30T08:44:57.378Z,25.70
2018-08-30T08:47:27.049Z,24.90
2018-08-30T08:49:56.943Z,24.90
2018-08-30T08:52:26.715Z,24.30
2018-08-30T08:54:56.191Z,23.70
2018-08-30T08:57:25.753Z,23.40
2018-08-30T08:59:55.452Z,23.50
2018-08-30T09:02:25.044Z,23.50
2018-08-30T09:04:54.744Z,23.40
2018-08-30T09:07:24.831Z,22.80
2018-08-30T09:09:54.495Z,22.30
2018-08-30T09:12:24.188Z,22.20
2018-08-30T09:14:54.059Z,22.40
2018-08-30T09:17:23.830Z,22.70
2018-08-30T09:19:53.458Z,22.50
2018-08-30T09:22:23.154Z,22.70
2018-08-30T09:24:52.854Z,22.40
2018-08-30T09:27:22.373Z,22.30
2018-08-30T09:29:51.991Z,23.30
2018-08-30T09:32:21.731Z,24.00
2018-08-30T09:34:51.294Z,23.70
2018-08-30T09:37:21.264Z,23.90
2018-08-30T09:39:51.005Z,25.70
2018-08-30T09:42:20.720Z,26.30
2018-08-30T09:44:50.511Z,26.90
2018-08-30T09:47:26.693Z,26.90
2018-08-30T09:49:56.195Z,26.00
2018-08-30T09:52:25.759Z,25.40
2018-08-30T09:54:55.295Z,25.40
2018-08-30T09:57:24.991Z,26.00
2018-08-30T09:59:54.526Z,27.50
2018-08-30T10:02:29.300Z,28.00
2018-08-30T10:04:58.849Z,26.00
2018-08-30T10:07:28.566Z,25.00
2018-08-30T10:09:58.176Z,25.00
2018-08-30T10:12:28.018Z,25.30
2018-08-30T10:14:57.811Z,25.70
2018-08-30T10:17:27.413Z,25.50
2018-08-30T10:19:57.064Z,25.00
2018-08-30T10:22:27.393Z,25.00
2018-08-30T10:24:57.105Z,24.00
2018-08-30T10:27:26.753Z,23.80
2018-08-30T10:29:56.464Z,23.50
2018-08-30T10:32:26.071Z,23.30
2018-08-30T10:34:55.560Z,23.40
2018-08-30T10:37:25.195Z,23.50
2018-08-30T10:39:54.986Z,23.90
2018-08-30T10:42:24.693Z,24.40
2018-08-30T10:44:54.326Z,24.90
2018-08-30T10:47:23.943Z,24.90
2018-08-30T10:49:53.554Z,24.90
2018-08-30T10:52:23.248Z,25.00
2018-08-30T10:54:52.847Z,25.90
2018-08-30T10:57:22.680Z,25.70
2018-08-30T10:59:52.345Z,24.80
2018-08-30T11:02:22.028Z,24.70
2018-08-30T11:04:52.607Z,25.50
2018-08-30T11:07:22.524Z,25.40
2018-08-30T11:09:52.048Z,26.60
2018-08-30T11:12:21.687Z,27.70
2018-08-30T11:14:51.469Z,29.30
2018-08-30T11:17:21.151Z,29.80
2018-08-30T11:19:50.851Z,29.80
2018-08-30T11:22:21.204Z,29.00
2018-08-30T11:24:50.797Z,29.00
2018-08-30T11:27:20.349Z,28.70
2018-08-30T11:29:49.923Z,27.80
2018-08-30T11:32:20.149Z,27.00
2018-08-30T11:34:49.869Z,27.10
2018-08-30T11:37:19.562Z,27.70
2018-08-30T11:39:49.348Z,28.50
2018-08-30T11:42:19.219Z,28.60
2018-08-30T11:44:49.157Z,29.00
2018-08-30T11:47:18.844Z,28.70
2018-08-30T11:49:49.089Z,27.60
2018-08-30T11:52:18.826Z,26.40
2018-08-30T11:54:48.366Z,26.20
2018-08-30T11:57:18.284Z,26.30
2018-08-30T11:59:48.089Z,25.80
2018-08-30T12:02:17.790Z,25.70
2018-08-30T12:04:47.287Z,25.40
2018-08-30T12:07:16.912Z,25.00
2018-08-30T12:09:46.811Z,25.20
2018-08-30T12:12:16.284Z,25.00
2018-08-30T12:14:46.524Z,25.00
2018-08-30T12:17:16.068Z,25.10
2018-08-30T12:19:45.721Z,24.70
2018-08-30T12:22:15.764Z,24.50
2018-08-30T12:24:45.489Z,24.20
2018-08-30T12:27:15.229Z,23.90
2018-08-30T12:29:44.900Z,23.70
2018-08-30T12:32:15.117Z,23.70
2018-08-30T12:34:44.662Z,23.60
2018-08-30T12:37:14.588Z,23.70
2018-08-30T12:39:44.390Z,23.80
2018-08-30T12:42:13.968Z,24.10
2018-08-30T12:44:43.728Z,24.10
2018-08-30T12:47:13.447Z,24.20
2018-08-30T12:49:43.209Z,24.20
2018-08-30T12:52:12.998Z,24.00
2018-08-30T12:54:42.662Z,23.70
2018-08-30T12:57:12.760Z,23.90
2018-08-30T12:59:43.301Z,23.60
2018-08-30T13:02:12.950Z,23.20
2018-08-30T13:04:42.565Z,23.10
2018-08-30T13:07:12.160Z,23.20
2018-08-30T13:09:42.075Z,22.90
2018-08-30T13:12:11.983Z,22.80
2018-08-30T13:14:41.478Z,22.40
2018-08-30T13:17:11.116Z,22.20
2018-08-30T13:19:40.818Z,21.90
2018-08-30T13:22:10.429Z,21.70
2018-08-30T13:24:40.173Z,21.70
2018-08-30T13:27:09.750Z,21.80
2018-08-30T13:29:39.339Z,21.90
2018-08-30T13:32:09.259Z,22.10
2018-08-30T13:34:38.651Z,22.50
2018-08-30T13:37:08.392Z,23.20
2018-08-30T13:39:38.257Z,23.70
2018-08-30T13:42:08.293Z,23.70
2018-08-30T13:44:37.925Z,23.80
2018-08-30T13:47:07.463Z,23.70
2018-08-30T13:49:37.309Z,23.50
2018-08-30T13:52:07.137Z,22.80
2018-08-30T13:54:36.939Z,22.60
2018-08-30T13:57:06.559Z,22.60
2018-08-30T13:59:36.543Z,22.70
2018-08-30T14:02:05.961Z,22.60
2018-08-30T14:04:35.608Z,22.70
2018-08-30T14:07:05.454Z,22.70
2018-08-30T14:09:35.139Z,22.80
2018-08-30T14:12:04.783Z,23.10
2018-08-30T14:14:34.314Z,23.50
2018-08-30T14:17:03.460Z,23.70
2018-08-30T14:19:33.229Z,23.90
2018-08-30T14:22:02.686Z,24.00
2018-08-30T14:24:32.352Z,23.70
2018-08-30T14:27:02.121Z,23.90
2018-08-30T14:29:31.519Z,23.80
2018-08-30T14:32:01.208Z,23.70
2018-08-30T14:34:30.977Z,23.70
2018-08-30T14:37:00.647Z,23.60
2018-08-30T14:39:30.341Z,23.40
2018-08-30T14:42:00.167Z,23.30
2018-08-30T14:44:29.880Z,23.30
2018-08-30T14:47:00.263Z,23.40
2018-08-30T14:49:29.897Z,23.70
2018-08-30T14:51:59.636Z,23.80
2018-08-30T14:54:29.438Z,23.50
2018-08-30T14:56:58.853Z,23.40
2018-08-30T14:59:28.624Z,23.30
2018-08-30T15:01:58.255Z,22.90
2018-08-30T15:04:27.953Z,23.20
2018-08-30T15:06:57.776Z,23.30
2018-08-30T15:09:27.448Z,23.30
2018-08-30T15:11:57.616Z,23.20
2018-08-30T15:14:27.254Z,23.20
2018-08-30T15:16:57.598Z,23.30
2018-08-30T15:19:27.590Z,23.10
2018-08-30T15:21:57.194Z,23.10
2018-08-30T15:24:27.115Z,23.20
2018-08-30T15:26:56.757Z,23.30
2018-08-30T15:29:26.461Z,23.40
2018-08-30T15:31:56.002Z,23.40
2018-08-30T15:34:25.482Z,23.50
2018-08-30T15:36:55.049Z,23.70
2018-08-30T15:39:24.585Z,23.60
2018-08-30T15:41:54.333Z,23.70
2018-08-30T15:44:24.069Z,23.70
2018-08-30T15:46:53.674Z,23.60
2018-08-30T15:49:23.241Z,23.50
2018-08-30T15:51:52.969Z,23.30
2018-08-30T15:54:22.561Z,23.10
2018-08-30T15:56:53.090Z,23.30
2018-08-30T15:59:22.687Z,23.20
2018-08-30T16:01:52.096Z,23.00
2018-08-30T16:04:21.625Z,22.80
2018-08-30T16:06:51.317Z,22.60
2018-08-30T16:09:20.915Z,22.50
2018-08-30T16:11:50.532Z,22.40
2018-08-30T16:14:20.112Z,22.40
2018-08-30T16:16:49.626Z,22.20
2018-08-30T16:19:19.259Z,22.00
2018-08-30T16:21:48.876Z,21.90
2018-08-30T16:24:18.864Z,21.80
2018-08-30T16:26:48.653Z,21.80
2018-08-30T16:29:18.453Z,21.90
2018-08-30T16:31:47.943Z,21.90
2018-08-30T16:34:17.533Z,22.00
2018-08-30T16:36:47.181Z,22.00
2018-08-30T16:39:16.841Z,22.00
2018-08-30T16:41:46.547Z,22.00
2018-08-30T16:44:16.299Z,21.80
2018-08-30T16:46:46.073Z,21.60
2018-08-30T16:49:16.315Z,21.50
2018-08-30T16:51:45.993Z,21.50
2018-08-30T16:54:15.673Z,21.40
2018-08-30T16:56:45.321Z,21.40
2018-08-30T16:59:14.900Z,21.30
2018-08-30T17:01:44.441Z,21.30
2018-08-30T17:04:14.069Z,21.20
2018-08-30T17:06:43.765Z,21.30
2018-08-30T17:09:14.353Z,21.10
2018-08-30T17:11:44.077Z,21.00
2018-08-30T17:14:13.618Z,20.90
2018-08-30T17:16:43.203Z,20.80
2018-08-30T17:19:21.208Z,20.70
2018-08-30T17:21:50.790Z,20.60
2018-08-30T17:24:20.431Z,20.50
2018-08-30T17:26:50.122Z,20.40
2018-08-30T17:29:19.785Z,20.40
2018-08-30T17:31:49.442Z,20.40
2018-08-30T17:34:19.098Z,20.30
2018-08-30T17:36:48.844Z,20.10
2018-08-30T17:39:18.609Z,20.00
2018-08-30T17:41:48.198Z,19.80
2018-08-30T17:44:17.828Z,19.70
2018-08-30T17:46:47.579Z,19.60
2018-08-30T17:49:17.225Z,19.40
2018-08-30T17:51:46.830Z,19.30
2018-08-30T17:54:16.536Z,19.10
2018-08-30T17:56:46.178Z,19.00
2018-08-30T17:59:15.965Z,18.80
2018-08-30T18:01:45.711Z,18.60
2018-08-30T18:04:15.474Z,18.30
2018-08-30T18:06:45.197Z,18.10
2018-08-30T18:09:14.740Z,17.90
2018-08-30T18:11:44.488Z,17.80
2018-08-30T18:14:14.079Z,17.60
2018-08-30T18:16:43.747Z,17.30
2018-08-30T18:19:13.500Z,17.20
2018-08-30T18:21:43.784Z,17.10
2018-08-30T18:24:13.571Z,16.80
2018-08-30T18:26:43.196Z,16.70
2018-08-30T18:29:13.469Z,16.60
2018-08-30T18:31:43.150Z,16.40
2018-08-30T18:34:13.029Z,16.30
2018-08-30T18:36:42.679Z,16.10
2018-08-30T18:39:12.337Z,15.90
2018-08-30T18:41:41.996Z,15.80
2018-08-30T18:44:11.887Z,15.70
2018-08-30T18:46:41.702Z,15.60
2018-08-30T18:49:11.503Z,15.50
2018-08-30T18:51:41.214Z,15.30
2018-08-30T18:54:11.102Z,15.20
2018-08-30T18:56:40.787Z,15.00
2018-08-30T18:59:10.365Z,15.00
2018-08-30T19:01:39.993Z,14.90
2018-08-30T19:04:09.638Z,14.70
2018-08-30T19:06:39.496Z,14.60
2018-08-30T19:09:11.385Z,14.60
2018-08-30T19:11:41.740Z,14.60
2018-08-30T19:14:11.966Z,14.50
2018-08-30T19:16:47.518Z,14.50
2018-08-30T19:19:22.207Z,14.50
2018-08-30T19:21:51.712Z,14.40
2018-08-30T19:24:26.693Z,14.30
2018-08-30T19:26:59.671Z,14.20
2018-08-30T19:29:34.045Z,14.10
2018-08-30T19:32:04.071Z,14.00
2018-08-30T19:34:34.066Z,14.00
2018-08-30T19:37:03.735Z,14.00
2018-08-30T19:39:33.585Z,14.00
2018-08-30T19:42:03.550Z,13.90
2018-08-30T19:44:33.580Z,13.90
2018-08-30T19:47:03.376Z,13.80
2018-08-30T19:49:33.134Z,13.80
2018-08-30T19:52:02.818Z,13.70
2018-08-30T19:54:32.940Z,13.70
2018-08-30T19:57:02.766Z,13.70
2018-08-30T19:59:32.380Z,13.60
2018-08-30T20:02:02.139Z,13.60
2018-08-30T20:04:31.688Z,13.60
2018-08-30T20:07:01.320Z,13.50
2018-08-30T20:09:31.013Z,13.50
2018-08-30T20:12:00.775Z,13.50
2018-08-30T20:14:30.493Z,13.50
2018-08-30T20:17:00.040Z,13.40
2018-08-30T20:19:29.866Z,13.30
2018-08-30T20:21:59.689Z,13.10
2018-08-30T20:24:29.236Z,13.60
2018-08-30T20:26:59.021Z,13.90
2018-08-30T20:29:28.793Z,14.20
2018-08-30T20:31:58.509Z,14.00
2018-08-30T20:34:28.212Z,14.10
2018-08-30T20:36:58.523Z,13.80
2018-08-30T20:39:28.278Z,14.10
2018-08-30T20:41:58.423Z,14.10
2018-08-30T20:44:28.187Z,14.10
2018-08-30T20:46:58.114Z,14.10
2018-08-30T20:49:27.798Z,14.10
2018-08-30T20:51:57.725Z,14.00
2018-08-30T20:54:27.491Z,13.80
2018-08-30T20:56:57.387Z,13.80
2018-08-30T20:59:28.111Z,13.80
2018-08-30T21:01:58.283Z,13.90
2018-08-30T21:04:27.821Z,13.90
2018-08-30T21:06:58.062Z,13.90
2018-08-30T21:09:27.744Z,13.80
2018-08-30T21:11:57.449Z,13.60
2018-08-30T21:14:27.090Z,13.60
2018-08-30T21:16:56.675Z,13.50
2018-08-30T21:19:26.193Z,13.50
2018-08-30T21:21:55.822Z,13.60
2018-08-30T21:24:25.645Z,13.60
2018-08-30T21:26:55.305Z,13.60
2018-08-30T21:29:24.897Z,13.70
2018-08-30T21:31:54.514Z,13.70
2018-08-30T21:34:24.101Z,13.60
2018-08-30T21:36:53.734Z,13.80
2018-08-30T21:39:23.346Z,13.80
2018-08-30T21:41:52.915Z,13.90
2018-08-30T21:44:22.642Z,14.10
2018-08-30T21:46:52.477Z,14.20
2018-08-30T21:49:22.186Z,14.10
2018-08-30T21:51:52.252Z,14.00
2018-08-30T21:54:21.902Z,14.00
2018-08-30T21:56:51.483Z,14.00
2018-08-30T21:59:21.069Z,14.00
2018-08-30T22:01:50.792Z,13.90
2018-08-30T22:04:20.358Z,13.80
2018-08-30T22:06:50.071Z,13.70
2018-08-30T22:09:19.705Z,13.60
2018-08-30T22:11:49.404Z,13.60
2018-08-30T22:14:19.146Z,13.50
2018-08-30T22:16:48.728Z,13.60
2018-08-30T22:19:18.395Z,13.50
2018-08-30T22:21:47.892Z,13.60
2018-08-30T22:24:17.637Z,13.50
2018-08-30T22:26:47.409Z,13.30
2018-08-30T22:29:17.011Z,13.30
2018-08-30T22:31:46.608Z,13.40
2018-08-30T22:34:16.113Z,13.60
2018-08-30T22:36:45.648Z,13.60
2018-08-30T22:39:15.429Z,13.60
2018-08-30T22:41:45.609Z,13.60
2018-08-30T22:44:15.161Z,13.50
2018-08-30T22:46:44.986Z,13.50
2018-08-30T22:49:15.234Z,13.40
2018-08-30T22:51:44.800Z,13.40
2018-08-30T22:54:14.410Z,13.20
2018-08-30T22:56:44.272Z,13.20
2018-08-30T22:59:13.940Z,13.10
2018-08-30T23:01:43.649Z,13.10
2018-08-30T23:04:13.250Z,13.10
2018-08-30T23:06:42.933Z,13.00
2018-08-30T23:09:12.705Z,13.20
2018-08-30T23:11:42.302Z,13.30
2018-08-30T23:14:12.098Z,13.20
2018-08-30T23:16:41.817Z,13.30
2018-08-30T23:19:11.437Z,13.40
2018-08-30T23:21:41.703Z,13.40
2018-08-30T23:24:11.212Z,13.40
2018-08-30T23:26:40.911Z,13.60
2018-08-30T23:29:10.555Z,13.50
2018-08-30T23:31:40.179Z,13.50
2018-08-30T23:34:09.774Z,13.40
2018-08-30T23:36:39.387Z,13.50
2018-08-30T23:39:11.465Z,13.50
2018-08-30T23:41:41.282Z,13.70
2018-08-30T23:44:10.958Z,13.80
2018-08-30T23:46:40.618Z,13.80
2018-08-30T23:49:10.430Z,13.80
2018-08-30T23:51:40.144Z,13.90
2018-08-30T23:54:09.928Z,13.80
2018-08-30T23:56:39.432Z,13.70
2018-08-30T23:59:25.938Z,13.70
